sensor_id;sensor_type;location;lat;lon;timestamp;P1;durP1;ratioP1;P2;durP2;ratioP2
31004;SDS011;17676;52.254;4.490;2022-10-20T00:00:16;6.50;;;4.55;;
31004;SDS011;17676;52.254;4.490;2022-10-20T00:02:42;11.10;;;5.63;;
31004;SDS011;17676;52.254;4.490;2022-10-20T00:05:07;9.55;;;5.20;;
31004;SDS011;17676;52.254;4.490;2022-10-20T00:07:32;7.43;;;5.20;;
31004;SDS011;17676;52.254;4.490;2022-10-20T00:09:58;10.25;;;5.10;;
31004;SDS011;17676;52.254;4.490;2022-10-20T00:12:23;7.43;;;5.32;;
31004;SDS011;17676;52.254;4.490;2022-10-20T00:14:48;7.63;;;5.43;;
31004;SDS011;17676;52.254;4.490;2022-10-20T00:17:13;8.93;;;5.03;;
31004;SDS011;17676;52.254;4.490;2022-10-20T00:19:39;6.10;;;5.22;;
31004;SDS011;17676;52.254;4.490;2022-10-20T00:22:04;6.60;;;5.28;;
31004;SDS011;17676;52.254;4.490;2022-10-20T00:24:30;11.43;;;6.22;;
31004;SDS011;17676;52.254;4.490;2022-10-20T00:26:56;8.15;;;5.40;;
31004;SDS011;17676;52.254;4.490;2022-10-20T00:29:21;6.05;;;5.40;;
31004;SDS011;17676;52.254;4.490;2022-10-20T00:31:46;7.95;;;5.63;;
31004;SDS011;17676;52.254;4.490;2022-10-20T00:34:11;7.35;;;5.53;;
31004;SDS011;17676;52.254;4.490;2022-10-20T00:36:37;9.00;;;5.65;;
31004;SDS011;17676;52.254;4.490;2022-10-20T00:39:03;11.38;;;5.97;;
31004;SDS011;17676;52.254;4.490;2022-10-20T00:41:29;6.90;;;6.03;;
31004;SDS011;17676;52.254;4.490;2022-10-20T00:43:55;7.20;;;6.13;;
31004;SDS011;17676;52.254;4.490;2022-10-20T00:46:22;9.98;;;6.85;;
31004;SDS011;17676;52.254;4.490;2022-10-20T00:48:49;12.07;;;6.68;;
31004;SDS011;17676;52.254;4.490;2022-10-20T00:51:17;7.65;;;6.07;;
31004;SDS011;17676;52.254;4.490;2022-10-20T00:53:44;10.13;;;6.95;;
31004;SDS011;17676;52.254;4.490;2022-10-20T00:56:10;10.43;;;6.70;;
31004;SDS011;17676;52.254;4.490;2022-10-20T00:58:35;9.48;;;6.07;;
31004;SDS011;17676;52.254;4.490;2022-10-20T01:01:00;7.75;;;6.25;;
31004;SDS011;17676;52.254;4.490;2022-10-20T01:03:27;8.18;;;6.53;;
31004;SDS011;17676;52.254;4.490;2022-10-20T01:05:54;14.90;;;6.75;;
31004;SDS011;17676;52.254;4.490;2022-10-20T01:08:20;12.68;;;6.97;;
31004;SDS011;17676;52.254;4.490;2022-10-20T01:10:56;9.80;;;7.03;;
31004;SDS011;17676;52.254;4.490;2022-10-20T01:13:37;11.32;;;6.50;;
31004;SDS011;17676;52.254;4.490;2022-10-20T01:16:10;7.75;;;6.80;;
31004;SDS011;17676;52.254;4.490;2022-10-20T01:18:50;10.63;;;7.55;;
31004;SDS011;17676;52.254;4.490;2022-10-20T01:33:11;10.35;;;7.20;;
31004;SDS011;17676;52.254;4.490;2022-10-20T01:37:48;13.68;;;7.28;;
31004;SDS011;17676;52.254;4.490;2022-10-20T01:42:59;11.18;;;7.82;;
31004;SDS011;17676;52.254;4.490;2022-10-20T01:45:26;12.60;;;8.18;;
31004;SDS011;17676;52.254;4.490;2022-10-20T01:47:52;9.63;;;7.63;;
31004;SDS011;17676;52.254;4.490;2022-10-20T01:50:18;11.35;;;7.55;;
31004;SDS011;17676;52.254;4.490;2022-10-20T01:52:43;14.75;;;7.50;;
31004;SDS011;17676;52.254;4.490;2022-10-20T01:55:12;9.05;;;7.57;;
31004;SDS011;17676;52.254;4.490;2022-10-20T02:00:11;14.13;;;7.85;;
31004;SDS011;17676;52.254;4.490;2022-10-20T02:07:37;12.25;;;7.47;;
31004;SDS011;17676;52.254;4.490;2022-10-20T02:10:20;9.55;;;7.78;;
31004;SDS011;17676;52.254;4.490;2022-10-20T02:12:48;13.30;;;7.88;;
31004;SDS011;17676;52.254;4.490;2022-10-20T02:15:15;10.57;;;8.73;;
31004;SDS011;17676;52.254;4.490;2022-10-20T02:17:43;13.30;;;8.32;;
31004;SDS011;17676;52.254;4.490;2022-10-20T02:20:09;13.68;;;8.68;;
31004;SDS011;17676;52.254;4.490;2022-10-20T02:22:34;11.85;;;8.48;;
31004;SDS011;17676;52.254;4.490;2022-10-20T02:25:00;12.60;;;9.02;;
31004;SDS011;17676;52.254;4.490;2022-10-20T02:27:29;16.50;;;9.10;;
31004;SDS011;17676;52.254;4.490;2022-10-20T02:29:58;13.65;;;8.75;;
31004;SDS011;17676;52.254;4.490;2022-10-20T02:32:24;10.75;;;8.15;;
31004;SDS011;17676;52.254;4.490;2022-10-20T02:34:49;11.70;;;8.95;;
31004;SDS011;17676;52.254;4.490;2022-10-20T02:37:15;13.27;;;9.30;;
31004;SDS011;17676;52.254;4.490;2022-10-20T02:39:40;10.73;;;8.32;;
31004;SDS011;17676;52.254;4.490;2022-10-20T02:42:05;12.23;;;8.40;;
31004;SDS011;17676;52.254;4.490;2022-10-20T02:44:31;16.42;;;9.43;;
31004;SDS011;17676;52.254;4.490;2022-10-20T02:46:56;13.25;;;9.32;;
31004;SDS011;17676;52.254;4.490;2022-10-20T02:49:21;12.50;;;9.43;;
31004;SDS011;17676;52.254;4.490;2022-10-20T02:51:47;14.07;;;9.95;;
31004;SDS011;17676;52.254;4.490;2022-10-20T02:54:12;14.25;;;9.90;;
31004;SDS011;17676;52.254;4.490;2022-10-20T02:56:38;16.73;;;10.25;;
31004;SDS011;17676;52.254;4.490;2022-10-20T02:59:03;11.85;;;9.90;;
31004;SDS011;17676;52.254;4.490;2022-10-20T03:01:29;15.02;;;9.57;;
31004;SDS011;17676;52.254;4.490;2022-10-20T03:03:54;17.35;;;10.05;;
31004;SDS011;17676;52.254;4.490;2022-10-20T03:06:23;12.55;;;10.27;;
31004;SDS011;17676;52.254;4.490;2022-10-20T03:08:48;13.50;;;11.07;;
31004;SDS011;17676;52.254;4.490;2022-10-20T03:11:13;14.13;;;10.10;;
31004;SDS011;17676;52.254;4.490;2022-10-20T03:13:39;13.38;;;10.50;;
31004;SDS011;17676;52.254;4.490;2022-10-20T03:16:05;13.98;;;10.85;;
31004;SDS011;17676;52.254;4.490;2022-10-20T03:18:30;16.55;;;10.70;;
31004;SDS011;17676;52.254;4.490;2022-10-20T03:20:55;11.85;;;10.38;;
31004;SDS011;17676;52.254;4.490;2022-10-20T03:23:21;19.63;;;10.50;;
31004;SDS011;17676;52.254;4.490;2022-10-20T03:25:46;13.75;;;10.70;;
31004;SDS011;17676;52.254;4.490;2022-10-20T03:28:11;16.38;;;11.45;;
31004;SDS011;17676;52.254;4.490;2022-10-20T03:30:37;14.88;;;10.85;;
31004;SDS011;17676;52.254;4.490;2022-10-20T03:33:02;15.30;;;10.80;;
31004;SDS011;17676;52.254;4.490;2022-10-20T03:35:28;18.23;;;11.45;;
31004;SDS011;17676;52.254;4.490;2022-10-20T03:37:53;15.10;;;11.35;;
31004;SDS011;17676;52.254;4.490;2022-10-20T03:40:18;17.67;;;11.65;;
31004;SDS011;17676;52.254;4.490;2022-10-20T03:42:45;18.63;;;12.35;;
31004;SDS011;17676;52.254;4.490;2022-10-20T03:45:10;17.42;;;12.48;;
31004;SDS011;17676;52.254;4.490;2022-10-20T03:47:35;17.33;;;12.93;;
31004;SDS011;17676;52.254;4.490;2022-10-20T03:50:01;22.77;;;13.43;;
31004;SDS011;17676;52.254;4.490;2022-10-20T03:52:27;20.38;;;12.73;;
31004;SDS011;17676;52.254;4.490;2022-10-20T03:54:52;17.17;;;13.38;;
31004;SDS011;17676;52.254;4.490;2022-10-20T03:57:18;14.85;;;12.40;;
31004;SDS011;17676;52.254;4.490;2022-10-20T03:59:44;15.18;;;12.55;;
31004;SDS011;17676;52.254;4.490;2022-10-20T04:04:41;16.10;;;13.75;;
31004;SDS011;17676;52.254;4.490;2022-10-20T04:07:06;15.95;;;12.80;;
31004;SDS011;17676;52.254;4.490;2022-10-20T04:09:31;18.60;;;13.82;;
31004;SDS011;17676;52.254;4.490;2022-10-20T04:11:56;20.67;;;14.35;;
31004;SDS011;17676;52.254;4.490;2022-10-20T04:14:22;22.20;;;13.75;;
31004;SDS011;17676;52.254;4.490;2022-10-20T04:16:47;17.42;;;13.77;;
31004;SDS011;17676;52.254;4.490;2022-10-20T04:19:12;19.23;;;14.70;;
31004;SDS011;17676;52.254;4.490;2022-10-20T04:21:38;20.02;;;14.85;;
31004;SDS011;17676;52.254;4.490;2022-10-20T04:24:03;19.23;;;13.82;;
31004;SDS011;17676;52.254;4.490;2022-10-20T04:26:31;19.88;;;13.70;;
31004;SDS011;17676;52.254;4.490;2022-10-20T04:28:56;17.77;;;14.85;;
31004;SDS011;17676;52.254;4.490;2022-10-20T04:31:21;19.75;;;14.50;;
31004;SDS011;17676;52.254;4.490;2022-10-20T04:33:46;18.60;;;14.70;;
31004;SDS011;17676;52.254;4.490;2022-10-20T04:36:12;18.27;;;14.82;;
31004;SDS011;17676;52.254;4.490;2022-10-20T04:38:37;23.25;;;15.82;;
31004;SDS011;17676;52.254;4.490;2022-10-20T04:41:03;20.35;;;15.48;;
31004;SDS011;17676;52.254;4.490;2022-10-20T04:43:29;21.65;;;15.38;;
31004;SDS011;17676;52.254;4.490;2022-10-20T04:45:58;23.52;;;16.17;;
31004;SDS011;17676;52.254;4.490;2022-10-20T04:48:26;23.13;;;16.55;;
31004;SDS011;17676;52.254;4.490;2022-10-20T04:51:01;20.27;;;15.70;;
31004;SDS011;17676;52.254;4.490;2022-10-20T04:53:26;21.90;;;15.88;;
31004;SDS011;17676;52.254;4.490;2022-10-20T04:55:55;23.17;;;16.27;;
31004;SDS011;17676;52.254;4.490;2022-10-20T04:58:21;21.88;;;15.68;;
31004;SDS011;17676;52.254;4.490;2022-10-20T05:00:47;22.17;;;16.33;;
31004;SDS011;17676;52.254;4.490;2022-10-20T05:03:12;25.92;;;15.75;;
31004;SDS011;17676;52.254;4.490;2022-10-20T05:05:37;26.63;;;16.90;;
31004;SDS011;17676;52.254;4.490;2022-10-20T05:08:02;22.65;;;16.50;;
31004;SDS011;17676;52.254;4.490;2022-10-20T05:10:27;20.48;;;16.20;;
31004;SDS011;17676;52.254;4.490;2022-10-20T05:12:53;25.33;;;17.40;;
31004;SDS011;17676;52.254;4.490;2022-10-20T05:15:18;21.45;;;16.80;;
31004;SDS011;17676;52.254;4.490;2022-10-20T05:17:43;27.80;;;17.17;;
31004;SDS011;17676;52.254;4.490;2022-10-20T05:20:08;27.50;;;18.00;;
31004;SDS011;17676;52.254;4.490;2022-10-20T05:22:34;22.50;;;17.67;;
31004;SDS011;17676;52.254;4.490;2022-10-20T05:24:59;26.35;;;17.65;;
31004;SDS011;17676;52.254;4.490;2022-10-20T05:27:24;29.00;;;19.58;;
31004;SDS011;17676;52.254;4.490;2022-10-20T05:29:50;27.67;;;18.60;;
31004;SDS011;17676;52.254;4.490;2022-10-20T05:32:15;24.33;;;17.60;;
31004;SDS011;17676;52.254;4.490;2022-10-20T05:34:41;25.52;;;17.15;;
31004;SDS011;17676;52.254;4.490;2022-10-20T05:37:10;27.70;;;18.00;;
31004;SDS011;17676;52.254;4.490;2022-10-20T05:39:36;24.38;;;17.45;;
31004;SDS011;17676;52.254;4.490;2022-10-20T05:42:01;24.77;;;18.08;;
31004;SDS011;17676;52.254;4.490;2022-10-20T05:44:27;26.20;;;18.98;;
31004;SDS011;17676;52.254;4.490;2022-10-20T05:46:52;24.83;;;18.35;;
31004;SDS011;17676;52.254;4.490;2022-10-20T05:49:17;23.85;;;18.00;;
31004;SDS011;17676;52.254;4.490;2022-10-20T05:51:43;25.35;;;19.17;;
31004;SDS011;17676;52.254;4.490;2022-10-20T05:54:09;23.98;;;19.48;;
31004;SDS011;17676;52.254;4.490;2022-10-20T05:56:35;31.92;;;19.00;;
31004;SDS011;17676;52.254;4.490;2022-10-20T05:59:00;31.00;;;20.02;;
31004;SDS011;17676;52.254;4.490;2022-10-20T06:01:27;24.52;;;19.02;;
31004;SDS011;17676;52.254;4.490;2022-10-20T06:04:03;22.98;;;17.40;;
31004;SDS011;17676;52.254;4.490;2022-10-20T06:06:29;25.52;;;18.17;;
31004;SDS011;17676;52.254;4.490;2022-10-20T06:08:57;29.65;;;19.05;;
31004;SDS011;17676;52.254;4.490;2022-10-20T06:11:22;25.08;;;19.23;;
31004;SDS011;17676;52.254;4.490;2022-10-20T06:13:48;26.77;;;18.90;;
31004;SDS011;17676;52.254;4.490;2022-10-20T06:16:14;25.05;;;18.58;;
31004;SDS011;17676;52.254;4.490;2022-10-20T06:18:41;28.65;;;19.63;;
31004;SDS011;17676;52.254;4.490;2022-10-20T06:21:11;27.30;;;18.40;;
31004;SDS011;17676;52.254;4.490;2022-10-20T06:23:37;25.25;;;18.73;;
31004;SDS011;17676;52.254;4.490;2022-10-20T06:26:12;24.83;;;19.20;;
31004;SDS011;17676;52.254;4.490;2022-10-20T06:28:39;26.33;;;19.02;;
31004;SDS011;17676;52.254;4.490;2022-10-20T06:33:37;23.48;;;19.00;;
31004;SDS011;17676;52.254;4.490;2022-10-20T06:36:03;29.27;;;18.77;;
31004;SDS011;17676;52.254;4.490;2022-10-20T06:38:28;28.15;;;19.60;;
31004;SDS011;17676;52.254;4.490;2022-10-20T06:40:54;27.88;;;18.40;;
31004;SDS011;17676;52.254;4.490;2022-10-20T06:43:20;25.77;;;19.02;;
31004;SDS011;17676;52.254;4.490;2022-10-20T06:45:55;25.20;;;18.17;;
31004;SDS011;17676;52.254;4.490;2022-10-20T06:48:21;26.13;;;18.38;;
31004;SDS011;17676;52.254;4.490;2022-10-20T06:50:46;24.23;;;17.70;;
31004;SDS011;17676;52.254;4.490;2022-10-20T06:53:12;24.30;;;18.67;;
31004;SDS011;17676;52.254;4.490;2022-10-20T06:55:37;23.42;;;17.92;;
31004;SDS011;17676;52.254;4.490;2022-10-20T06:58:04;24.20;;;17.00;;
31004;SDS011;17676;52.254;4.490;2022-10-20T07:00:29;26.08;;;17.00;;
31004;SDS011;17676;52.254;4.490;2022-10-20T07:02:55;23.73;;;17.27;;
31004;SDS011;17676;52.254;4.490;2022-10-20T07:05:20;24.05;;;16.00;;
31004;SDS011;17676;52.254;4.490;2022-10-20T07:07:46;24.45;;;17.65;;
31004;SDS011;17676;52.254;4.490;2022-10-20T07:10:14;30.02;;;17.67;;
31004;SDS011;17676;52.254;4.490;2022-10-20T07:12:40;24.55;;;17.15;;
31004;SDS011;17676;52.254;4.490;2022-10-20T07:15:05;21.65;;;17.45;;
31004;SDS011;17676;52.254;4.490;2022-10-20T07:17:30;21.88;;;18.30;;
31004;SDS011;17676;52.254;4.490;2022-10-20T07:19:56;20.60;;;17.23;;
31004;SDS011;17676;52.254;4.490;2022-10-20T07:22:21;17.52;;;15.23;;
31004;SDS011;17676;52.254;4.490;2022-10-20T07:24:46;24.02;;;16.98;;
31004;SDS011;17676;52.254;4.490;2022-10-20T07:27:12;20.20;;;16.98;;
31004;SDS011;17676;52.254;4.490;2022-10-20T07:29:38;24.58;;;16.70;;
31004;SDS011;17676;52.254;4.490;2022-10-20T07:32:03;19.63;;;15.82;;
31004;SDS011;17676;52.254;4.490;2022-10-20T07:34:29;21.23;;;16.45;;
31004;SDS011;17676;52.254;4.490;2022-10-20T07:36:54;22.35;;;18.27;;
31004;SDS011;17676;52.254;4.490;2022-10-20T07:39:20;23.40;;;18.25;;
31004;SDS011;17676;52.254;4.490;2022-10-20T07:41:45;22.17;;;16.85;;
31004;SDS011;17676;52.254;4.490;2022-10-20T07:44:11;21.40;;;17.30;;
31004;SDS011;17676;52.254;4.490;2022-10-20T07:46:37;21.67;;;16.48;;
31004;SDS011;17676;52.254;4.490;2022-10-20T07:49:02;21.73;;;16.08;;
31004;SDS011;17676;52.254;4.490;2022-10-20T07:51:28;22.80;;;16.02;;
31004;SDS011;17676;52.254;4.490;2022-10-20T07:54:02;21.98;;;17.52;;
31004;SDS011;17676;52.254;4.490;2022-10-20T07:56:31;18.38;;;15.90;;
31004;SDS011;17676;52.254;4.490;2022-10-20T07:58:58;23.00;;;17.08;;
31004;SDS011;17676;52.254;4.490;2022-10-20T08:01:23;19.02;;;16.25;;
31004;SDS011;17676;52.254;4.490;2022-10-20T08:03:49;18.70;;;15.95;;
31004;SDS011;17676;52.254;4.490;2022-10-20T08:06:14;17.95;;;15.65;;
31004;SDS011;17676;52.254;4.490;2022-10-20T08:08:40;21.73;;;16.20;;
31004;SDS011;17676;52.254;4.490;2022-10-20T08:11:05;21.38;;;16.75;;
31004;SDS011;17676;52.254;4.490;2022-10-20T08:13:31;19.83;;;17.73;;
31004;SDS011;17676;52.254;4.490;2022-10-20T08:15:56;20.02;;;16.08;;
31004;SDS011;17676;52.254;4.490;2022-10-20T08:18:22;20.15;;;16.05;;
31004;SDS011;17676;52.254;4.490;2022-10-20T08:20:47;20.83;;;16.50;;
31004;SDS011;17676;52.254;4.490;2022-10-20T08:23:12;20.45;;;16.10;;
31004;SDS011;17676;52.254;4.490;2022-10-20T08:25:38;20.63;;;17.15;;
31004;SDS011;17676;52.254;4.490;2022-10-20T08:28:04;22.02;;;16.98;;
31004;SDS011;17676;52.254;4.490;2022-10-20T08:30:29;20.55;;;15.48;;
31004;SDS011;17676;52.254;4.490;2022-10-20T08:32:55;19.35;;;15.68;;
31004;SDS011;17676;52.254;4.490;2022-10-20T08:35:21;20.88;;;16.50;;
31004;SDS011;17676;52.254;4.490;2022-10-20T08:37:46;18.27;;;16.38;;
31004;SDS011;17676;52.254;4.490;2022-10-20T08:40:24;23.80;;;16.02;;
31004;SDS011;17676;52.254;4.490;2022-10-20T08:42:50;23.30;;;15.73;;
31004;SDS011;17676;52.254;4.490;2022-10-20T08:45:19;23.05;;;15.70;;
31004;SDS011;17676;52.254;4.490;2022-10-20T08:47:46;20.48;;;15.93;;
31004;SDS011;17676;52.254;4.490;2022-10-20T08:50:14;22.15;;;16.27;;
31004;SDS011;17676;52.254;4.490;2022-10-20T08:52:41;18.38;;;15.93;;
31004;SDS011;17676;52.254;4.490;2022-10-20T08:55:06;19.02;;;15.52;;
31004;SDS011;17676;52.254;4.490;2022-10-20T08:57:32;20.90;;;15.80;;
31004;SDS011;17676;52.254;4.490;2022-10-20T09:00:19;17.50;;;14.85;;
31004;SDS011;17676;52.254;4.490;2022-10-20T09:02:48;18.90;;;15.80;;
31004;SDS011;17676;52.254;4.490;2022-10-20T09:05:14;18.77;;;16.20;;
31004;SDS011;17676;52.254;4.490;2022-10-20T09:07:40;19.73;;;15.93;;
31004;SDS011;17676;52.254;4.490;2022-10-20T09:12:37;21.90;;;16.80;;
31004;SDS011;17676;52.254;4.490;2022-10-20T09:15:04;17.75;;;15.73;;
31004;SDS011;17676;52.254;4.490;2022-10-20T09:17:29;20.65;;;15.75;;
31004;SDS011;17676;52.254;4.490;2022-10-20T09:19:55;17.83;;;15.20;;
31004;SDS011;17676;52.254;4.490;2022-10-20T09:22:24;26.30;;;16.77;;
31004;SDS011;17676;52.254;4.490;2022-10-20T09:24:51;23.77;;;15.57;;
31004;SDS011;17676;52.254;4.490;2022-10-20T09:29:45;23.92;;;17.15;;
31004;SDS011;17676;52.254;4.490;2022-10-20T09:32:18;18.65;;;16.05;;
31004;SDS011;17676;52.254;4.490;2022-10-20T09:34:46;20.23;;;16.88;;
31004;SDS011;17676;52.254;4.490;2022-10-20T09:37:12;25.48;;;17.27;;
31004;SDS011;17676;52.254;4.490;2022-10-20T09:42:16;26.90;;;16.95;;
31004;SDS011;17676;52.254;4.490;2022-10-20T09:44:52;21.55;;;17.52;;
31004;SDS011;17676;52.254;4.490;2022-10-20T09:47:18;21.10;;;16.17;;
31004;SDS011;17676;52.254;4.490;2022-10-20T09:49:44;23.25;;;17.65;;
31004;SDS011;17676;52.254;4.490;2022-10-20T09:52:17;19.33;;;16.92;;
31004;SDS011;17676;52.254;4.490;2022-10-20T09:54:48;19.83;;;16.42;;
31004;SDS011;17676;52.254;4.490;2022-10-20T09:57:16;22.80;;;17.35;;
31004;SDS011;17676;52.254;4.490;2022-10-20T09:59:45;21.27;;;16.92;;
31004;SDS011;17676;52.254;4.490;2022-10-20T10:04:38;23.17;;;18.10;;
31004;SDS011;17676;52.254;4.490;2022-10-20T10:07:05;21.52;;;16.40;;
31004;SDS011;17676;52.254;4.490;2022-10-20T10:09:50;19.35;;;17.20;;
31004;SDS011;17676;52.254;4.490;2022-10-20T10:12:16;21.05;;;17.98;;
31004;SDS011;17676;52.254;4.490;2022-10-20T10:17:36;19.55;;;16.38;;
31004;SDS011;17676;52.254;4.490;2022-10-20T10:20:03;23.33;;;17.60;;
31004;SDS011;17676;52.254;4.490;2022-10-20T10:22:31;24.23;;;17.55;;
31004;SDS011;17676;52.254;4.490;2022-10-20T10:24:56;25.08;;;18.80;;
31004;SDS011;17676;52.254;4.490;2022-10-20T10:27:26;21.13;;;16.88;;
31004;SDS011;17676;52.254;4.490;2022-10-20T10:29:52;22.95;;;17.85;;
31004;SDS011;17676;52.254;4.490;2022-10-20T10:32:22;21.42;;;18.17;;
31004;SDS011;17676;52.254;4.490;2022-10-20T10:37:22;19.90;;;17.77;;
31004;SDS011;17676;52.254;4.490;2022-10-20T10:39:48;21.88;;;18.85;;
31004;SDS011;17676;52.254;4.490;2022-10-20T10:42:25;23.23;;;18.40;;
31004;SDS011;17676;52.254;4.490;2022-10-20T10:45:32;24.67;;;19.83;;
31004;SDS011;17676;52.254;4.490;2022-10-20T10:55:50;22.65;;;20.30;;
31004;SDS011;17676;52.254;4.490;2022-10-20T11:01:02;23.55;;;19.80;;
31004;SDS011;17676;52.254;4.490;2022-10-20T11:06:20;22.70;;;20.33;;
31004;SDS011;17676;52.254;4.490;2022-10-20T11:11:42;28.38;;;22.42;;
31004;SDS011;17676;52.254;4.490;2022-10-20T11:14:12;28.70;;;21.63;;
31004;SDS011;17676;52.254;4.490;2022-10-20T11:16:40;27.40;;;22.00;;
31004;SDS011;17676;52.254;4.490;2022-10-20T11:26:45;25.55;;;22.33;;
31004;SDS011;17676;52.254;4.490;2022-10-20T11:29:36;28.00;;;21.75;;
31004;SDS011;17676;52.254;4.490;2022-10-20T11:37:27;24.55;;;20.60;;
31004;SDS011;17676;52.254;4.490;2022-10-20T11:42:22;26.00;;;20.45;;
31004;SDS011;17676;52.254;4.490;2022-10-20T11:44:52;27.33;;;20.73;;
31004;SDS011;17676;52.254;4.490;2022-10-20T11:47:20;28.88;;;21.38;;
31004;SDS011;17676;52.254;4.490;2022-10-20T11:49:48;24.05;;;21.45;;
31004;SDS011;17676;52.254;4.490;2022-10-20T11:55:19;30.77;;;22.25;;
31004;SDS011;17676;52.254;4.490;2022-10-20T12:10:55;30.07;;;24.43;;
31004;SDS011;17676;52.254;4.490;2022-10-20T12:15:57;27.98;;;23.38;;
31004;SDS011;17676;52.254;4.490;2022-10-20T12:18:26;31.58;;;23.77;;
31004;SDS011;17676;52.254;4.490;2022-10-20T12:20:53;28.13;;;24.52;;
31004;SDS011;17676;52.254;4.490;2022-10-20T12:26:02;32.30;;;24.02;;
31004;SDS011;17676;52.254;4.490;2022-10-20T12:30:57;29.97;;;25.13;;
31004;SDS011;17676;52.254;4.490;2022-10-20T12:33:39;35.38;;;26.60;;
31004;SDS011;17676;52.254;4.490;2022-10-20T12:38:40;31.33;;;25.08;;
31004;SDS011;17676;52.254;4.490;2022-10-20T12:41:06;31.65;;;25.88;;
31004;SDS011;17676;52.254;4.490;2022-10-20T12:43:34;29.60;;;25.20;;
31004;SDS011;17676;52.254;4.490;2022-10-20T12:46:07;29.25;;;23.48;;
31004;SDS011;17676;52.254;4.490;2022-10-20T12:48:33;26.83;;;23.80;;
31004;SDS011;17676;52.254;4.490;2022-10-20T12:51:05;30.48;;;24.45;;
31004;SDS011;17676;52.254;4.490;2022-10-20T12:53:31;34.15;;;26.08;;
31004;SDS011;17676;52.254;4.490;2022-10-20T12:56:05;33.58;;;25.95;;
31004;SDS011;17676;52.254;4.490;2022-10-20T12:58:31;34.53;;;26.30;;
31004;SDS011;17676;52.254;4.490;2022-10-20T13:16:38;22.90;;;20.50;;
31004;SDS011;17676;52.254;4.490;2022-10-20T13:19:06;22.52;;;20.23;;
31004;SDS011;17676;52.254;4.490;2022-10-20T13:21:32;22.83;;;20.45;;
31004;SDS011;17676;52.254;4.490;2022-10-20T13:26:28;22.50;;;20.00;;
31004;SDS011;17676;52.254;4.490;2022-10-20T13:28:55;24.10;;;21.27;;
31004;SDS011;17676;52.254;4.490;2022-10-20T13:31:35;24.05;;;21.02;;
31004;SDS011;17676;52.254;4.490;2022-10-20T13:39:20;25.02;;;22.50;;
31004;SDS011;17676;52.254;4.490;2022-10-20T13:41:50;25.90;;;23.02;;
31004;SDS011;17676;52.254;4.490;2022-10-20T13:51:46;25.42;;;22.40;;
31004;SDS011;17676;52.254;4.490;2022-10-20T13:54:18;25.73;;;22.48;;
31004;SDS011;17676;52.254;4.490;2022-10-20T13:56:45;28.52;;;22.88;;
31004;SDS011;17676;52.254;4.490;2022-10-20T14:01:37;25.08;;;22.55;;
31004;SDS011;17676;52.254;4.490;2022-10-20T14:06:48;24.50;;;21.88;;
31004;SDS011;17676;52.254;4.490;2022-10-20T14:09:21;24.67;;;22.02;;
31004;SDS011;17676;52.254;4.490;2022-10-20T14:11:52;26.33;;;22.38;;
31004;SDS011;17676;52.254;4.490;2022-10-20T14:14:20;24.65;;;22.05;;
31004;SDS011;17676;52.254;4.490;2022-10-20T14:17:06;26.10;;;22.73;;
31004;SDS011;17676;52.254;4.490;2022-10-20T14:19:32;27.42;;;22.38;;
31004;SDS011;17676;52.254;4.490;2022-10-20T14:22:15;28.55;;;23.55;;
31004;SDS011;17676;52.254;4.490;2022-10-20T14:24:45;26.48;;;23.63;;
31004;SDS011;17676;52.254;4.490;2022-10-20T14:27:20;25.98;;;23.30;;
31004;SDS011;17676;52.254;4.490;2022-10-20T14:29:46;27.60;;;23.05;;
31004;SDS011;17676;52.254;4.490;2022-10-20T14:32:17;24.63;;;21.95;;
31004;SDS011;17676;52.254;4.490;2022-10-20T14:34:53;26.33;;;23.45;;
31004;SDS011;17676;52.254;4.490;2022-10-20T14:37:23;23.73;;;21.13;;
31004;SDS011;17676;52.254;4.490;2022-10-20T14:39:52;25.45;;;22.73;;
31004;SDS011;17676;52.254;4.490;2022-10-20T14:42:22;25.27;;;21.50;;
31004;SDS011;17676;52.254;4.490;2022-10-20T14:44:48;23.52;;;19.90;;
31004;SDS011;17676;52.254;4.490;2022-10-20T14:47:13;23.55;;;20.90;;
31004;SDS011;17676;52.254;4.490;2022-10-20T14:49:41;30.92;;;22.63;;
31004;SDS011;17676;52.254;4.490;2022-10-20T14:54:38;24.45;;;21.92;;
31004;SDS011;17676;52.254;4.490;2022-10-20T14:59:32;26.40;;;22.83;;
31004;SDS011;17676;52.254;4.490;2022-10-20T15:02:03;25.60;;;22.65;;
31004;SDS011;17676;52.254;4.490;2022-10-20T15:04:33;28.83;;;21.73;;
31004;SDS011;17676;52.254;4.490;2022-10-20T15:09:31;27.50;;;24.08;;
31004;SDS011;17676;52.254;4.490;2022-10-20T15:12:02;24.85;;;22.15;;
31004;SDS011;17676;52.254;4.490;2022-10-20T15:14:28;26.63;;;23.13;;
31004;SDS011;17676;52.254;4.490;2022-10-20T15:16:53;25.15;;;22.45;;
31004;SDS011;17676;52.254;4.490;2022-10-20T15:19:29;29.38;;;24.20;;
31004;SDS011;17676;52.254;4.490;2022-10-20T15:22:15;25.88;;;23.15;;
31004;SDS011;17676;52.254;4.490;2022-10-20T15:24:41;28.92;;;24.08;;
31004;SDS011;17676;52.254;4.490;2022-10-20T15:27:10;26.80;;;23.73;;
31004;SDS011;17676;52.254;4.490;2022-10-20T15:29:38;27.10;;;23.98;;
31004;SDS011;17676;52.254;4.490;2022-10-20T15:32:04;30.13;;;24.52;;
31004;SDS011;17676;52.254;4.490;2022-10-20T15:34:30;30.67;;;24.73;;
31004;SDS011;17676;52.254;4.490;2022-10-20T15:36:55;29.80;;;23.95;;
31004;SDS011;17676;52.254;4.490;2022-10-20T15:39:21;30.48;;;24.75;;
31004;SDS011;17676;52.254;4.490;2022-10-20T15:41:46;28.50;;;25.50;;
31004;SDS011;17676;52.254;4.490;2022-10-20T15:44:12;33.90;;;25.83;;
31004;SDS011;17676;52.254;4.490;2022-10-20T15:46:38;29.40;;;23.95;;
31004;SDS011;17676;52.254;4.490;2022-10-20T15:49:04;27.50;;;24.58;;
31004;SDS011;17676;52.254;4.490;2022-10-20T15:51:29;27.53;;;24.63;;
31004;SDS011;17676;52.254;4.490;2022-10-20T15:53:56;32.45;;;26.42;;
31004;SDS011;17676;52.254;4.490;2022-10-20T15:56:22;30.65;;;26.17;;
31004;SDS011;17676;52.254;4.490;2022-10-20T15:58:47;36.15;;;28.30;;
31004;SDS011;17676;52.254;4.490;2022-10-20T16:01:14;34.60;;;27.50;;
31004;SDS011;17676;52.254;4.490;2022-10-20T16:03:43;33.35;;;27.55;;
31004;SDS011;17676;52.254;4.490;2022-10-20T16:06:09;33.83;;;27.58;;
31004;SDS011;17676;52.254;4.490;2022-10-20T16:08:37;32.97;;;28.92;;
31004;SDS011;17676;52.254;4.490;2022-10-20T16:11:02;34.65;;;28.25;;
31004;SDS011;17676;52.254;4.490;2022-10-20T16:13:27;34.28;;;29.13;;
31004;SDS011;17676;52.254;4.490;2022-10-20T16:15:52;35.05;;;28.55;;
31004;SDS011;17676;52.254;4.490;2022-10-20T16:18:18;37.17;;;28.92;;
31004;SDS011;17676;52.254;4.490;2022-10-20T16:20:43;38.67;;;31.17;;
31004;SDS011;17676;52.254;4.490;2022-10-20T16:23:08;41.67;;;31.70;;
31004;SDS011;17676;52.254;4.490;2022-10-20T16:25:33;39.00;;;32.28;;
31004;SDS011;17676;52.254;4.490;2022-10-20T16:27:59;38.45;;;31.65;;
31004;SDS011;17676;52.254;4.490;2022-10-20T16:30:24;42.03;;;33.00;;
31004;SDS011;17676;52.254;4.490;2022-10-20T16:32:49;46.75;;;33.53;;
31004;SDS011;17676;52.254;4.490;2022-10-20T16:35:14;42.40;;;32.97;;
31004;SDS011;17676;52.254;4.490;2022-10-20T16:37:40;39.75;;;33.17;;
31004;SDS011;17676;52.254;4.490;2022-10-20T16:40:06;40.13;;;33.78;;
31004;SDS011;17676;52.254;4.490;2022-10-20T16:42:31;46.38;;;34.20;;
31004;SDS011;17676;52.254;4.490;2022-10-20T16:44:56;47.72;;;35.42;;
31004;SDS011;17676;52.254;4.490;2022-10-20T16:47:22;42.30;;;33.78;;
31004;SDS011;17676;52.254;4.490;2022-10-20T16:49:48;46.20;;;35.63;;
31004;SDS011;17676;52.254;4.490;2022-10-20T16:52:13;46.85;;;34.03;;